• Join FlightAware (Why Join?)
  • Login
  • US Flag 
05:36PM EDT


 

Airport Tracker/Info


-or-


 

Live Flight TrackerFlight Track Log ✈ F-GSPR ✈ 06-Jun-2013 ✈ VHHH / HKG - LFPG / CDG

Flight Track Log - Related Links

Times and Time Zones

All times are in EDT time to prevent confusion due to time zone crossing. See the F-GSPR flight status page for this flight to view local times or setup timezone preferences in your user account.

Time Position Orientation Groundspeed Altitude Reporting Facility
EDT Latitude Longitude Course Direction KTS MPH feet Rate Location/Type
10:06PM 22.3150 113.9270 41° Northeast 10 12  Level FlightAware
10:06PM 22.3150 113.9280 90° East 10 12 60 Level FlightAware
10:08PM 22.4646 113.8027 322° Northwest  Level Estimated
10:09PM 22.5540 113.7276 322° Northwest  Level Estimated
10:10PM 22.6434 113.6524 322° Northwest  Level Estimated
10:10PM 22.3150 113.9270 322° Northwest 19 22  Level FlightAware
10:11PM 22.3160 113.9260 317° Northwest 25 29 120 Level FlightAware
10:11PM 22.3160 113.9250 270° West 28 32 120 Level FlightAware
10:11PM 22.3170 113.9240 317° Northwest 26 30 120 Level FlightAware
10:12PM 22.3160 113.9230 223° Southwest 30 35 120 Level FlightAware
10:12PM 22.3160 113.9210 270° West 25 29 120 Level FlightAware
10:13PM 22.3150 113.9210 180° South 24 28 180 Level FlightAware
10:13PM 22.3140 113.9210 180° South 20 23 180 Level FlightAware
10:14PM 22.3130 113.9210 180° South 21 24 180 Level FlightAware
10:14PM 22.3120 113.9220 137° Southeast 25 29 180 Level FlightAware
10:14PM 22.3110 113.9220 180° South 30 35 180 Level FlightAware
10:15PM 22.3090 113.9230 155° Southeast 30 35 240 Level FlightAware
10:16PM 22.3070 113.9240 155° Southeast 24 28 240 Level FlightAware
10:16PM 22.3080 113.9250 43° Northeast 24 28 300 Level FlightAware
10:17PM 22.3080 113.9260 90° East 30 35 300 Level FlightAware
10:17PM 22.3080 113.9270 90° East 15 17 360 Level FlightAware
10:17PM 22.3090 113.9290 62° Northeast 17 20 420 Level FlightAware
10:18PM 22.3100 113.9310 62° Northeast 29 33 480 Level FlightAware
10:18PM 22.3090 113.9320 137° Southeast 28 32 540 Level FlightAware
10:18PM 22.3080 113.9330 137° Southeast 24 28 600 Level FlightAware
10:19PM 22.3070 113.9300 250° West 60 69 780 Level FlightAware
10:20PM 22.3020 113.9170 247° West 160 184 1,320 Level FlightAware
10:20PM 22.2890 113.8790 250° West 189 217 1,500 1,980 Climbing FlightAware
10:21PM 22.2690 113.8150 251° West 185 213 3,900 1,860 Climbing FlightAware
10:22PM 22.2670 113.8090 250° West 186 214 4,000 1,140 Climbing FlightAware
10:22PM 22.2580 113.7960 233° Southwest 188 216 4,400 960 Climbing FlightAware
10:22PM 22.2480 113.7900 209° Southwest 204 235 4,500 720 Climbing FlightAware
10:23PM 22.2190 113.7920 176° South 232 267 4,900 900 Climbing FlightAware
10:23PM 22.1860 113.7960 174° South 261 300 5,400 1,440 Climbing FlightAware
10:24PM 22.1520 113.7990 175° South 269 310 6,300 2,100 Climbing FlightAware
10:24PM 22.1370 113.8050 160° South 275 316 6,800 1,740 Climbing FlightAware
10:24PM 22.1250 113.8140 145° Southeast 284 327 7,000 1,920 Climbing FlightAware
10:24PM 22.1150 113.8360 116° Southeast 291 335 7,700 2,340 Climbing FlightAware
10:24PM 22.1130 113.8530 97° East 298 343 8,100 1,560 Climbing FlightAware
10:25PM 22.1200 113.8950 80° East 310 357 8,900 1,800 Climbing FlightAware
10:25PM 22.1380 113.9380 66° East 312 359 9,900 1,500 Climbing FlightAware
10:26PM 22.1700 113.9940 58° Northeast 338 389 10,600 1,140 Climbing FlightAware
10:27PM 22.2320 114.0470 38° Northeast 354 407 11,800 1,560 Climbing FlightAware
10:28PM 22.2990 114.1060 39° Northeast 361 415 13,300 1,800 Climbing FlightAware
10:28PM 22.3530 114.1490 36° Northeast 363 418 14,400 1,500 Climbing FlightAware
10:29PM 22.3970 114.1620 15° North 366 421 15,000 1,380 Climbing FlightAware
10:29PM 22.4210 114.1610 358° North 366 421 15,400 1,320 Climbing FlightAware
10:30PM 22.4970 114.1440 348° North 377 434 16,300 1,080 Climbing FlightAware
10:31PM 22.5670 114.1210 343° North 386 444 17,000 1,140 Climbing FlightAware
10:31PM 22.6390 114.0840 335° Northwest 394 453 17,900 1,500 Climbing FlightAware
10:32PM 22.7050 114.0500 335° Northwest 387 445 19,100 1,500 Climbing FlightAware
10:33PM 22.7640 114.0200 335° Northwest 391 450 19,800 1,200 Climbing FlightAware
10:33PM 22.8410 113.9800 334° Northwest 394 453 20,800 1,200 Climbing FlightAware
10:34PM 22.9160 113.9420 335° Northwest 394 453 21,700 1,080 Climbing FlightAware
10:35PM 22.9860 113.9050 334° Northwest 398 458 22,400 840 Climbing FlightAware
10:35PM 23.0530 113.8700 334° Northwest 407 468 22,900 660 Climbing FlightAware
10:36PM 23.1300 113.8350 337° Northwest 416 479 23,400 660 Climbing FlightAware
10:37PM 23.1890 113.8110 339° North 423 487 23,800 480 Climbing FlightAware
10:38PM 23.2830 113.7750 341° North 441 507 24,100 360 Climbing FlightAware
10:38PM 23.3590 113.7450 340° North 451 519 24,400 300 Climbing FlightAware
10:39PM 23.4510 113.7080 340° North 454 522 24,600 120 Climbing FlightAware
10:40PM 23.5280 113.6780 340° North 455 524 24,600  Level FlightAware
10:40PM 23.6140 113.6440 340° North 454 522 24,600  Level FlightAware
10:41PM 23.6970 113.6110 340° North 454 522 24,600  Level FlightAware
10:42PM 23.7770 113.5790 340° North 453 521 24,600  Level FlightAware
10:42PM 23.8570 113.5480 340° North 451 519 24,600  Level FlightAware
10:43PM 23.9340 113.5120 337° Northwest 447 514 24,600  Level FlightAware
10:44PM 23.9820 113.4540 312° West 437 503 24,600  Level FlightAware
10:44PM 24.0100 113.3650 289° West 449 517 24,600  Level FlightAware
10:45PM 24.0410 113.2520 287° West 451 519 24,600  Level FlightAware
10:46PM 24.0670 113.1600 287° West 453 521 24,600 240 Level FlightAware
10:47PM 24.1000 113.0420 287° West 465 535 25,000 540 Climbing FlightAware
10:48PM 24.1290 112.9370 287° West 471 542 25,500 720 Climbing FlightAware
10:48PM 24.1550 112.8450 287° West 472 543 26,100 780 Climbing FlightAware
10:49PM 24.1910 112.7160 287° West 477 549 26,800 600 Climbing FlightAware
10:50PM 24.2130 112.6370 287° West 481 554 27,100 420 Climbing FlightAware
10:51PM 24.2480 112.5040 286° West 483 556 27,500 240 Climbing FlightAware
10:51PM 24.2790 112.3950 287° West 485 558 27,600 60 Climbing FlightAware
10:52PM 24.3090 112.2860 287° West 488 562 27,600  Level FlightAware
10:53PM 24.3350 112.1920 287° West 487 560 27,600  Level FlightAware
10:54PM 24.3600 112.0990 286° West 486 559 27,600  Level FlightAware
10:54PM 24.3910 111.9860 287° West 486 559 27,600  Level FlightAware
10:55PM 24.4200 111.8770 286° West 487 560 27,600  Level FlightAware
10:56PM 24.4550 111.7500 287° West 491 565 27,600  Level FlightAware
10:57PM 24.4790 111.6590 286° West 488 562 27,600  Level FlightAware
10:57PM 24.5040 111.5650 286° West 487 560 27,600  Level FlightAware
10:58PM 24.5240 111.4900 286° West 487 560 27,600  Level FlightAware
10:59PM 24.5560 111.3660 286° West 487 560 27,600  Level FlightAware
11:00PM 24.5760 111.2890 286° West 487 560 27,600  Level FlightAware
11:00PM 24.5960 111.2120 286° West 487 560 27,600  Level FlightAware
11:03PM 24.7886 111.0416 321° Northwest  Level Estimated
11:03PM 24.9980 110.9820 321° Northwest 494 568 27,600  Level FlightAware
11:03PM 25.0630 110.9280 323° Northwest 494 568 27,600  Level FlightAware
11:04PM 25.1200 110.8800 323° Northwest 494 568 27,600  Level FlightAware
11:05PM 25.2060 110.8090 323° Northwest 494 568 27,600  Level FlightAware
11:06PM 25.2800 110.7470 323° Northwest 494 568 27,600  Level FlightAware
11:06PM 25.3360 110.7000 323° Northwest 494 568 27,600  Level FlightAware
11:09PM 25.5238 110.5314 321° Northwest  Level Estimated
11:10PM 25.6125 110.4516 321° Northwest  Level Estimated
11:11PM 25.7011 110.3716 321° Northwest  Level Estimated
11:12PM 25.7896 110.2915 321° Northwest  Level Estimated
11:13PM 25.8782 110.2113 321° Northwest  Level Estimated
11:14PM 25.9667 110.1310 321° Northwest  Level Estimated
11:15PM 26.0551 110.0506 321° Northwest  Level Estimated
11:16PM 26.1435 109.9700 321° Northwest  Level Estimated
11:17PM 26.2318 109.8893 321° Northwest  Level Estimated
11:18PM 26.3201 109.8085 321° Northwest  Level Estimated
11:19PM 26.4084 109.7276 321° Northwest  Level Estimated
11:20PM 26.4966 109.6465 321° Northwest  Level Estimated
11:21PM 26.5848 109.5654 321° Northwest  Level Estimated
11:22PM 26.6729 109.4840 321° Northwest  Level Estimated
11:23PM 26.7610 109.4026 320° Northwest  Level Estimated
11:24PM 26.8490 109.3211 320° Northwest  Level Estimated
11:25PM 26.9370 109.2394 320° Northwest  Level Estimated
11:26PM 27.0249 109.1576 320° Northwest  Level Estimated
11:27PM 27.1128 109.0756 320° Northwest  Level Estimated
11:28PM 27.2006 108.9936 320° Northwest  Level Estimated
11:29PM 27.2884 108.9114 320° Northwest  Level Estimated
11:30PM 27.3762 108.8291 320° Northwest  Level Estimated
11:31PM 27.4639 108.7466 320° Northwest  Level Estimated
11:32PM 27.5515 108.6640 320° Northwest  Level Estimated
11:33PM 27.6391 108.5813 320° Northwest  Level Estimated
11:34PM 27.7267 108.4984 320° Northwest  Level Estimated
11:35PM 27.8141 108.4155 320° Northwest  Level Estimated
11:36PM 27.9016 108.3323 320° Northwest  Level Estimated
11:37PM 27.9890 108.2491 320° Northwest  Level Estimated
11:38PM 28.0763 108.1657 320° Northwest  Level Estimated
11:39PM 28.1637 108.0822 320° Northwest  Level Estimated
11:40PM 28.2509 107.9985 320° Northwest  Level Estimated
11:41PM 28.3381 107.9147 320° Northwest  Level Estimated
11:42PM 28.4252 107.8308 320° Northwest  Level Estimated
11:43PM 28.5123 107.7467 320° Northwest  Level Estimated
11:44PM 28.5994 107.6625 320° Northwest  Level Estimated
11:45PM 28.6864 107.5782 320° Northwest  Level Estimated
11:46PM 28.7733 107.4937 320° Northwest  Level Estimated
11:47PM 28.8602 107.4090 320° Northwest  Level Estimated
11:48PM 28.9470 107.3243 320° Northwest  Level Estimated
11:49PM 29.0338 107.2393 319° Northwest  Level Estimated
11:50PM 29.1205 107.1543 319° Northwest  Level Estimated
11:51PM 29.2072 107.0691 319° Northwest  Level Estimated
11:52PM 29.2938 106.9837 319° Northwest  Level Estimated
11:53PM 29.3804 106.8982 319° Northwest  Level Estimated
11:54PM 29.4669 106.8126 319° Northwest  Level Estimated
11:55PM 29.5533 106.7268 319° Northwest  Level Estimated
11:56PM 29.6397 106.6409 319° Northwest  Level Estimated
11:57PM 29.7261 106.5548 319° Northwest  Level Estimated
11:58PM 29.8124 106.4686 319° Northwest  Level Estimated
11:59PM 29.8986 106.3822 319° Northwest  Level Estimated
12:00AM 29.9848 106.2957 319° Northwest  Level Estimated
12:01AM 30.0709 106.2090 319° Northwest  Level Estimated
12:02AM 30.1569 106.1222 319° Northwest  Level Estimated
12:03AM 30.2430 106.0352 319° Northwest  Level Estimated
12:04AM 30.3289 105.9481 319° Northwest  Level Estimated
12:05AM 30.4148 105.8608 319° Northwest  Level Estimated
12:06AM 30.5006 105.7734 319° Northwest  Level Estimated
12:07AM 30.5863 105.6859 319° Northwest  Level Estimated
12:08AM 30.6719 105.5983 319° Northwest  Level Estimated
12:09AM 30.7574 105.5105 319° Northwest  Level Estimated
12:10AM 30.8429 105.4226 319° Northwest  Level Estimated
12:11AM 30.9283 105.3345 319° Northwest  Level Estimated
12:12AM 31.0137 105.2462 318° Northwest  Level Estimated
12:13AM 31.0990 105.1578 318° Northwest  Level Estimated
12:14AM 31.1842 105.0692 318° Northwest  Level Estimated
12:15AM 31.2694 104.9805 318° Northwest  Level Estimated
12:16AM 31.3545 104.8916 318° Northwest  Level Estimated
12:17AM 31.4396 104.8026 318° Northwest  Level Estimated
12:18AM 31.5246 104.7133 318° Northwest  Level Estimated
12:19AM 31.6095 104.6240 318° Northwest  Level Estimated
12:20AM 31.6944 104.5344 318° Northwest  Level Estimated
12:21AM 31.7792 104.4447 318° Northwest  Level Estimated
12:22AM 31.8639 104.3549 318° Northwest  Level Estimated
12:23AM 31.9486 104.2648 318° Northwest  Level Estimated
12:24AM 32.0332 104.1746 318° Northwest  Level Estimated
12:25AM 32.1178 104.0843 318° Northwest  Level Estimated
12:26AM 32.2023 103.9937 318° Northwest  Level Estimated
12:27AM 32.2867 103.9030 318° Northwest  Level Estimated
12:28AM 32.3711 103.8122 318° Northwest  Level Estimated
12:29AM 32.4554 103.7211 318° Northwest  Level Estimated
12:30AM 32.5396 103.6299 318° Northwest  Level Estimated
12:31AM 32.6238 103.5385 318° Northwest  Level Estimated
12:32AM 32.7079 103.4470 318° Northwest  Level Estimated
12:33AM 32.7919 103.3552 317° Northwest  Level Estimated
12:34AM 32.8759 103.2634 317° Northwest  Level Estimated
12:35AM 32.9598 103.1713 317° Northwest  Level Estimated
12:36AM 33.0436 103.0790 317° Northwest  Level Estimated
12:37AM 33.1274 102.9866 317° Northwest  Level Estimated
12:38AM 33.2111 102.8940 317° Northwest  Level Estimated
12:39AM 33.2947 102.8012 317° Northwest  Level Estimated
12:40AM 33.3783 102.7083 317° Northwest  Level Estimated
12:41AM 33.4617 102.6151 317° Northwest  Level Estimated
12:42AM 33.5452 102.5218 317° Northwest  Level Estimated
12:43AM 33.6285 102.4283 317° Northwest  Level Estimated
12:44AM 33.7118 102.3346 317° Northwest  Level Estimated
12:45AM 33.7950 102.2408 317° Northwest  Level Estimated
12:46AM 33.8781 102.1467 317° Northwest  Level Estimated
12:47AM 33.9612 102.0525 317° Northwest  Level Estimated
12:48AM 34.0442 101.9581 317° Northwest  Level Estimated
12:49AM 34.1271 101.8635 317° Northwest  Level Estimated
12:50AM 34.2099 101.7687 317° Northwest  Level Estimated
12:51AM 34.2927 101.6738 317° Northwest  Level Estimated
12:52AM 34.3754 101.5786 316° Northwest  Level Estimated
12:53AM 34.4580 101.4833 316° Northwest  Level Estimated
12:54AM 34.5406 101.3877 316° Northwest  Level Estimated
12:55AM 34.6231 101.2920 316° Northwest  Level Estimated
12:56AM 34.7055 101.1961 316° Northwest  Level Estimated
12:57AM 34.7878 101.1000 316° Northwest  Level Estimated
12:58AM 34.8701 101.0037 316° Northwest  Level Estimated
12:59AM 34.9522 100.9072 316° Northwest  Level Estimated
01:00AM 35.0343 100.8105 316° Northwest  Level Estimated
01:01AM 35.1163 100.7137 316° Northwest  Level Estimated
01:02AM 35.1983 100.6166 316° Northwest  Level Estimated
01:03AM 35.2802 100.5193 316° Northwest  Level Estimated
01:04AM 35.3619 100.4219 316° Northwest  Level Estimated
01:05AM 35.4437 100.3242 316° Northwest  Level Estimated
01:06AM 35.5253 100.2264 316° Northwest  Level Estimated
01:07AM 35.6068 100.1283 316° Northwest  Level Estimated
01:08AM 35.6883 100.0301 316° Northwest  Level Estimated
01:09AM 35.7697 99.9316 316° Northwest  Level Estimated
01:10AM 35.8510 99.8329 315° West  Level Estimated
01:11AM 35.9322 99.7341 315° West  Level Estimated
01:12AM 36.0134 99.6350 315° West  Level Estimated
01:13AM 36.0945 99.5357 315° West  Level Estimated
01:14AM 36.1754 99.4363 315° West  Level Estimated
01:15AM 36.2564 99.3366 315° West  Level Estimated
01:16AM 36.3372 99.2367 315° West  Level Estimated
01:17AM 36.4179 99.1366 315° West  Level Estimated
01:18AM 36.4986 99.0363 315° West  Level Estimated
01:19AM 36.5791 98.9358 315° West  Level Estimated
01:20AM 36.6596 98.8351 315° West  Level Estimated
01:21AM 36.7400 98.7342 315° West  Level Estimated
01:22AM 36.8203 98.6330 315° West  Level Estimated
01:23AM 36.9006 98.5317 315° West  Level Estimated
01:24AM 36.9807 98.4301 315° West  Level Estimated
01:25AM 37.0608 98.3283 315° West  Level Estimated
01:26AM 37.1407 98.2263 315° West  Level Estimated
01:27AM 37.2206 98.1241 314° West  Level Estimated
01:28AM 37.3004 98.0217 314° West  Level Estimated
01:29AM 37.3801 97.9190 314° West  Level Estimated
01:30AM 37.4597 97.8162 314° West  Level Estimated
01:31AM 37.5393 97.7131 314° West  Level Estimated
01:32AM 37.6187 97.6098 314° West  Level Estimated
01:33AM 37.6981 97.5063 314° West  Level Estimated
01:34AM 37.7773 97.4025 314° West  Level Estimated
01:35AM 37.8565 97.2985 314° West  Level Estimated
01:36AM 37.9356 97.1944 314° West  Level Estimated
01:37AM 38.0145 97.0899 314° West  Level Estimated
01:38AM 38.0934 96.9853 314° West  Level Estimated
01:39AM 38.1722 96.8804 314° West  Level Estimated
01:40AM 38.2509 96.7753 314° West  Level Estimated
01:41AM 38.3295 96.6700 314° West  Level Estimated
01:42AM 38.4080 96.5645 314° West  Level Estimated
01:43AM 38.4865 96.4587 313° West  Level Estimated
01:44AM 38.5648 96.3527 313° West  Level Estimated
01:45AM 38.6430 96.2464 313° West  Level Estimated
01:46AM 38.7211 96.1400 313° West  Level Estimated
01:47AM 38.7992 96.0332 313° West  Level Estimated
01:48AM 38.8771 95.9263 313° West  Level Estimated
01:49AM 38.9549 95.8191 313° West  Level Estimated
01:50AM 39.0327 95.7117 313° West  Level Estimated
01:51AM 39.1103 95.6041 313° West  Level Estimated
01:52AM 39.1879 95.4962 313° West  Level Estimated
01:53AM 39.2653 95.3881 313° West  Level Estimated
01:54AM 39.3427 95.2797 313° West  Level Estimated
01:55AM 39.4199 95.1711 313° West  Level Estimated
01:56AM 39.4970 95.0623 313° West  Level Estimated
01:57AM 39.5741 94.9532 313° West  Level Estimated
01:58AM 39.6510 94.8439 312° West  Level Estimated
01:59AM 39.7279 94.7343 312° West  Level Estimated
02:00AM 39.8046 94.6245 312° West  Level Estimated
02:01AM 39.8812 94.5144 312° West  Level Estimated
02:02AM 39.9577 94.4041 312° West  Level Estimated
02:03AM 40.0341 94.2936 312° West  Level Estimated
02:04AM 40.1105 94.1828 312° West  Level Estimated
02:05AM 40.1867 94.0717 312° West  Level Estimated
02:06AM 40.2628 93.9604 312° West  Level Estimated
02:07AM 40.3388 93.8489 312° West  Level Estimated
02:08AM 40.4146 93.7371 312° West  Level Estimated
02:09AM 40.4904 93.6250 312° West  Level Estimated
02:10AM 40.5661 93.5127 312° West  Level Estimated
02:11AM 40.6417 93.4001 312° West  Level Estimated
02:12AM 40.7171 93.2873 311° West  Level Estimated
02:13AM 40.7924 93.1742 311° West  Level Estimated
02:14AM 40.8677 93.0609 311° West  Level Estimated
02:15AM 40.9428 92.9473 311° West  Level Estimated
02:16AM 41.0178 92.8335 311° West  Level Estimated
02:17AM 41.0927 92.7194 311° West  Level Estimated
02:18AM 41.1675 92.6050 311° West  Level Estimated
02:19AM 41.2422 92.4904 311° West  Level Estimated
02:20AM 41.3167 92.3755 311° West  Level Estimated
02:21AM 41.3912 92.2604 311° West  Level Estimated
02:22AM 41.4655 92.1450 311° West  Level Estimated
02:23AM 41.5397 92.0293 311° West  Level Estimated
02:24AM 41.6138 91.9133 311° West  Level Estimated
02:25AM 41.6878 91.7971 310° West  Level Estimated
02:26AM 41.7616 91.6806 310° West  Level Estimated
02:27AM 41.8354 91.5639 310° West  Level Estimated
02:28AM 41.9090 91.4469 310° West  Level Estimated
02:29AM 41.9825 91.3296 310° West  Level Estimated
02:30AM 42.0559 91.2120 310° West  Level Estimated
02:31AM 42.1292 91.0942 310° West  Level Estimated
02:32AM 42.2023 90.9761 310° West  Level Estimated
02:33AM 42.2753 90.8577 310° West  Level Estimated
02:34AM 42.3482 90.7391 310° West  Level Estimated
02:35AM 42.4210 90.6201 310° West  Level Estimated
02:36AM 42.4937 90.5010 310° West  Level Estimated
02:37AM 42.5662 90.3815 310° West  Level Estimated
02:38AM 42.6386 90.2617 309° West  Level Estimated
02:39AM 42.7109 90.1417 309° West  Level Estimated
02:40AM 42.7831 90.0214 309° West  Level Estimated
02:41AM 42.8551 89.9008 309° West  Level Estimated
02:42AM 42.9270 89.7799 309° West  Level Estimated
02:43AM 42.9988 89.6587 309° West  Level Estimated
02:44AM 43.0704 89.5373 309° West  Level Estimated
02:45AM 43.1419 89.4156 309° West  Level Estimated
02:46AM 43.2133 89.2936 309° West  Level Estimated
02:47AM 43.2846 89.1713 309° West  Level Estimated
02:48AM 43.3557 89.0487 309° West  Level Estimated
02:49AM 43.4267 88.9258 309° West  Level Estimated
02:50AM 43.4976 88.8027 308° West  Level Estimated
02:51AM 43.5683 88.6792 308° West  Level Estimated
02:52AM 43.6389 88.5555 308° West  Level Estimated
02:53AM 43.7094 88.4314 308° West  Level Estimated
02:54AM 43.7797 88.3071 308° West  Level Estimated
02:55AM 43.8499 88.1825 308° West  Level Estimated
02:56AM 43.9200 88.0576 308° West  Level Estimated
02:57AM 43.9899 87.9324 308° West  Level Estimated
02:58AM 44.0597 87.8069 308° West  Level Estimated
02:59AM 44.1293 87.6811 308° West  Level Estimated
03:00AM 44.1989 87.5550 308° West  Level Estimated
03:01AM 44.2682 87.4286 307° West  Level Estimated
03:02AM 44.3375 87.3020 307° West  Level Estimated
03:03AM 44.4066 87.1750 307° West  Level Estimated
03:04AM 44.4755 87.0477 307° West  Level Estimated
03:05AM 44.5443 86.9201 307° West  Level Estimated
03:06AM 44.6130 86.7922 307° West  Level Estimated
03:07AM 44.6815 86.6640 307° West  Level Estimated
03:08AM 44.7499 86.5356 307° West  Level Estimated
03:09AM 44.8181 86.4068 307° West  Level Estimated
03:10AM 44.8862 86.2777 307° West  Level Estimated
03:11AM 44.9542 86.1483 307° West  Level Estimated
03:12AM 45.0220 86.0185 307° West  Level Estimated
03:13AM 45.0896 85.8885 306° West  Level Estimated
03:14AM 45.1571 85.7582 306° West  Level Estimated
03:15AM 45.2245 85.6276 306° West  Level Estimated
03:16AM 45.2917 85.4966 306° West  Level Estimated
03:17AM 45.3587 85.3653 306° West  Level Estimated
03:18AM 45.4257 85.2338 306° West  Level Estimated
03:19AM 45.4924 85.1019 306° West  Level Estimated
03:20AM 45.5590 84.9697 306° West  Level Estimated
03:21AM 45.6255 84.8372 306° West  Level Estimated
03:22AM 45.6918 84.7044 306° West  Level Estimated
03:23AM 45.7579 84.5713 305° West  Level Estimated
03:24AM 45.8239 84.4378 305° West  Level Estimated
03:25AM 45.8897 84.3040 305° West  Level Estimated
03:26AM 45.9554 84.1700 305° West  Level Estimated
03:27AM 46.0209 84.0356 305° West  Level Estimated
03:28AM 46.0863 83.9008 305° West  Level Estimated
03:29AM 46.1515 83.7658 305° West  Level Estimated
03:30AM 46.2165 83.6304 305° West  Level Estimated
03:31AM 46.2814 83.4948 305° West  Level Estimated
03:32AM 46.3461 83.3588 305° West  Level Estimated
03:33AM 46.4107 83.2224 305° West  Level Estimated
03:34AM 46.4751 83.0858 304° West  Level Estimated
03:35AM 46.5393 82.9488 304° West  Level Estimated
03:36AM 46.6034 82.8115 304° West  Level Estimated
03:37AM 46.6673 82.6739 304° West  Level Estimated
03:38AM 46.7310 82.5360 304° West  Level Estimated
03:39AM 46.7946 82.3977 304° West  Level Estimated
03:40AM 46.8580 82.2591 304° West  Level Estimated
03:41AM 46.9212 82.1202 304° West  Level Estimated
03:42AM 46.9843 81.9809 304° West  Level Estimated
03:43AM 47.0472 81.8413 304° West  Level Estimated
03:44AM 47.1100 81.7014 303° West  Level Estimated
03:45AM 47.1725 81.5612 303° West  Level Estimated
03:46AM 47.2349 81.4206 303° West  Level Estimated
03:47AM 47.2971 81.2797 303° West  Level Estimated
03:48AM 47.3592 81.1385 303° West  Level Estimated
03:49AM 47.4210 80.9969 303° West  Level Estimated
03:50AM 47.4827 80.8550 303° West  Level Estimated
03:51AM 47.5443 80.7128 303° West  Level Estimated
03:52AM 47.6056 80.5703 303° West  Level Estimated
03:53AM 47.6668 80.4274 302° West  Level Estimated
03:54AM 47.7277 80.2841 302° West  Level Estimated
03:55AM 47.7886 80.1405 302° West  Level Estimated
03:56AM 47.8492 79.9967 302° West  Level Estimated
03:57AM 47.9096 79.8524 302° West  Level Estimated
03:58AM 47.9699 79.7078 302° West  Level Estimated
03:59AM 48.0300 79.5629 302° West  Level Estimated
04:00AM 48.0899 79.4177 302° West  Level Estimated
04:01AM 48.1496 79.2721 302° West  Level Estimated
04:02AM 48.2092 79.1262 302° West  Level Estimated
04:03AM 48.2685 78.9799 301° West  Level Estimated
04:04AM 48.3277 78.8333 301° West  Level Estimated
04:05AM 48.3867 78.6863 301° West  Level Estimated
04:06AM 48.4454 78.5390 301° West  Level Estimated
04:07AM 48.5041 78.3914 301° West  Level Estimated
04:08AM 48.5625 78.2434 301° West  Level Estimated
04:09AM 48.6207 78.0951 301° West  Level Estimated
04:10AM 48.6787 77.9465 301° West  Level Estimated
04:11AM 48.7365 77.7975 301° West  Level Estimated
04:12AM 48.7942 77.6481 300° West  Level Estimated
04:13AM 48.8517 77.4985 300° West  Level Estimated
04:14AM 48.9089 77.3484 300° West  Level Estimated
04:15AM 48.9660 77.1981 300° West  Level Estimated
04:16AM 49.0229 77.0473 300° West  Level Estimated
04:17AM 49.0795 76.8963 300° West  Level Estimated
04:18AM 49.1360 76.7449 300° West  Level Estimated
04:19AM 49.1923 76.5931 300° West  Level Estimated
04:20AM 49.2484 76.4410 300° West  Level Estimated
04:21AM 49.3042 76.2886 299° West  Level Estimated
04:22AM 49.3599 76.1358 299° West  Level Estimated
04:23AM 49.4154 75.9827 299° West  Level Estimated
04:24AM 49.4707 75.8292 299° West  Level Estimated
04:25AM 49.5257 75.6754 299° West  Level Estimated
04:26AM 49.5806 75.5212 299° West  Level Estimated
04:27AM 49.6353 75.3667 299° West  Level Estimated
04:28AM 49.6897 75.2119 299° West  Level Estimated
04:29AM 49.7440 75.0567 298° West  Level Estimated
04:30AM 49.7980 74.9011 298° West  Level Estimated
04:31AM 49.8518 74.7452 298° West  Level Estimated
04:32AM 49.9055 74.5890 298° West  Level Estimated
04:33AM 49.9589 74.4324 298° West  Level Estimated
04:34AM 50.0121 74.2754 298° West  Level Estimated
04:35AM 50.0651 74.1181 298° West  Level Estimated
04:36AM 50.1178 73.9605 298° West  Level Estimated
04:37AM 50.1704 73.8025 297° West  Level Estimated
04:38AM 50.2228 73.6442 297° West  Level Estimated
04:39AM 50.2749 73.4855 297° West  Level Estimated
04:40AM 50.3268 73.3265 297° West  Level Estimated
04:41AM 50.3785 73.1671 297° West  Level Estimated
04:42AM 50.4300 73.0074 297° West  Level Estimated
04:43AM 50.4812 72.8474 297° West  Level Estimated
04:44AM 50.5323 72.6869 297° West  Level Estimated
04:45AM 50.5831 72.5262 297° West  Level Estimated
04:46AM 50.6337 72.3651 296° West  Level Estimated
04:47AM 50.6841 72.2036 296° West  Level Estimated
04:48AM 50.7342 72.0418 296° West  Level Estimated
04:49AM 50.7841 71.8797 296° West  Level Estimated
04:50AM 50.8338 71.7172 296° West  Level Estimated
04:51AM 50.8833 71.5544 296° West  Level Estimated
04:52AM 50.9326 71.3912 296° West  Level Estimated
04:53AM 50.9816 71.2277 296° West  Level Estimated
04:54AM 51.0304 71.0638 295° West  Level Estimated
04:55AM 51.0789 70.8996 295° West  Level Estimated
04:56AM 51.1273 70.7350 295° West  Level Estimated
04:57AM 51.1754 70.5701 295° West  Level Estimated
04:58AM 51.2232 70.4049 295° West  Level Estimated
04:59AM 51.2709 70.2393 295° West  Level Estimated
05:00AM 51.3183 70.0734 295° West  Level Estimated
05:01AM 51.3654 69.9071 294° West  Level Estimated
05:02AM 51.4123 69.7405 294° West  Level Estimated
05:03AM 51.4590 69.5735 294° West  Level Estimated
05:04AM 51.5055 69.4062 294° West  Level Estimated
05:05AM 51.5517 69.2386 294° West  Level Estimated
05:06AM 51.5977 69.0706 294° West  Level Estimated
05:07AM 51.6434 68.9023 294° West  Level Estimated
05:08AM 51.6889 68.7336 294° West  Level Estimated
05:09AM 51.7342 68.5646 293° West  Level Estimated
05:10AM 51.7792 68.3953 293° West  Level Estimated
05:11AM 51.8240 68.2256 293° West  Level Estimated
05:12AM 51.8685 68.0556 293° West  Level Estimated
05:13AM 51.9128 67.8853 293° West  Level Estimated
05:14AM 51.9568 67.7146 293° West  Level Estimated
05:15AM 52.0006 67.5436 293° West  Level Estimated
05:16AM 52.0441 67.3722 293° West  Level Estimated
05:17AM 52.0874 67.2005 292° West  Level Estimated
05:18AM 52.1304 67.0285 292° West  Level Estimated
05:19AM 52.1732 66.8562 292° West  Level Estimated
05:20AM 52.2158 66.6835 292° West  Level Estimated
05:21AM 52.2580 66.5105 292° West  Level Estimated
05:22AM 52.3001 66.3372 292° West  Level Estimated
05:23AM 52.3418 66.1635 292° West  Level Estimated
05:24AM 52.3834 65.9895 291° West  Level Estimated
05:25AM 52.4246 65.8152 291° West  Level Estimated
05:26AM 52.4656 65.6405 291° West  Level Estimated
05:27AM 52.5064 65.4656 291° West  Level Estimated
05:28AM 52.5469 65.2903 291° West  Level Estimated
05:29AM 52.5871 65.1147 291° West  Level Estimated
05:30AM 52.6271 64.9387 291° West  Level Estimated
05:31AM 52.6668 64.7625 290° West  Level Estimated
05:32AM 52.7062 64.5859 290° West  Level Estimated
05:33AM 52.7454 64.4090 290° West  Level Estimated
05:34AM 52.7843 64.2318 290° West  Level Estimated
05:35AM 52.8230 64.0543 290° West  Level Estimated
05:36AM 52.8614 63.8764 290° West  Level Estimated
05:37AM 52.8995 63.6982 290° West  Level Estimated
05:38AM 52.9374 63.5198 289° West  Level Estimated
05:39AM 52.9750 63.3410 289° West  Level Estimated
05:40AM 53.0123 63.1619 289° West  Level Estimated
05:41AM 53.0493 62.9825 289° West  Level Estimated
05:42AM 53.0861 62.8028 289° West  Level Estimated
05:43AM 53.1226 62.6228 289° West  Level Estimated
05:44AM 53.1589 62.4425 289° West  Level Estimated
05:45AM 53.1948 62.2618 288° West  Level Estimated
05:46AM 53.2305 62.0809 288° West  Level Estimated
05:47AM 53.2659 61.8997 288° West  Level Estimated
05:48AM 53.3011 61.7182 288° West  Level Estimated
05:49AM 53.3359 61.5363 288° West  Level Estimated
05:50AM 53.3705 61.3542 288° West  Level Estimated
05:51AM 53.4049 61.1718 288° West  Level Estimated
05:52AM 53.4389 60.9891 287° West  Level Estimated
05:53AM 53.4726 60.8061 287° West  Level Estimated
05:54AM 53.5061 60.6228 287° West  Level Estimated
05:55AM 53.5393 60.4392 287° West  Level Estimated
05:56AM 53.5722 60.2554 287° West  Level Estimated
05:57AM 53.6048 60.0712 287° West  Level Estimated
05:58AM 53.6372 59.8868 287° West  Level Estimated
05:59AM 53.6692 59.7021 286° West  Level Estimated
06:00AM 53.7010 59.5171 286° West  Level Estimated
06:01AM 53.7325 59.3318 286° West  Level Estimated
06:02AM 53.7637 59.1463 286° West  Level Estimated
06:03AM 53.7946 58.9604 286° West  Level Estimated
06:04AM 53.8253 58.7743 286° West  Level Estimated
06:05AM 53.8556 58.5880 286° West  Level Estimated
06:06AM 53.8857 58.4013 285° West  Level Estimated
06:07AM 53.9154 58.2144 285° West  Level Estimated
06:08AM 53.9449 58.0272 285° West  Level Estimated
06:09AM 53.9741 57.8398 285° West  Level Estimated
06:10AM 54.0030 57.6521 285° West  Level Estimated
06:11AM 54.0316 57.4641 285° West  Level Estimated
06:12AM 54.0599 57.2759 284° West  Level Estimated
06:13AM 54.0879 57.0875 284° West  Level Estimated
06:14AM 54.1156 56.8988 284° West  Level Estimated
06:15AM 54.1430 56.7098 284° West  Level Estimated
06:16AM 54.1701 56.5206 284° West  Level Estimated
06:16AM 50.7600 52.9820 284° West 444 511 36,000  Level FlightAware
06:16AM 50.7890 52.8750 293° West 443 510 36,000  Level FlightAware
06:17AM 54.1970 56.3311 284° West  Level Estimated
06:17AM 50.8360 52.7040 294° West 444 511 36,000  Level FlightAware
06:18AM 50.8670 52.5890 293° West 443 510 36,000  Level FlightAware
06:19AM 50.9400 52.3200 293° West 444 511 36,000  Level FlightAware
06:20AM 50.9750 52.1890 293° West 443 510 36,000  Level FlightAware
06:21AM 51.0060 52.0750 293° West 444 511 36,000  Level FlightAware
06:22AM 51.0460 51.9240 293° West 445 512 36,000  Level FlightAware
06:22AM 51.0740 51.8180 293° West 446 513 36,000  Level FlightAware
06:23AM 51.1050 51.6970 292° West 447 514 36,000  Level FlightAware
06:24AM 51.1370 51.5750 293° West 449 517 36,000  Level FlightAware
06:24AM 51.1800 51.4420 297° West 452 520 36,000  Level FlightAware
06:25AM 51.2330 51.2930 300° West 452 520 36,000  Level FlightAware
06:26AM 51.2810 51.1550 299° West 453 521 36,000  Level FlightAware
06:27AM 51.3280 51.0200 299° West 453 521 36,000  Level FlightAware
06:27AM 51.3750 50.8830 299° West 453 521 36,000  Level FlightAware
06:28AM 51.4150 50.7680 299° West 453 521 36,000  Level FlightAware
06:29AM 51.4530 50.6580 299° West 452 520 36,000  Level FlightAware
06:29AM 51.4940 50.5380 299° West 451 519 36,000  Level FlightAware
06:30AM 51.5390 50.4010 298° West 450 518 36,000  Level FlightAware
06:31AM 51.5820 50.2680 298° West 449 517 36,000  Level FlightAware
06:32AM 51.6180 50.1610 298° West 450 518 36,000  Level FlightAware
06:32AM 51.6590 50.0330 297° West 449 517 36,000  Level FlightAware
06:33AM 51.6970 49.9180 298° West 448 516 36,000  Level FlightAware
06:34AM 51.7390 49.7860 297° West 449 517 36,000  Level FlightAware
06:34AM 51.7800 49.6590 298° West 449 517 36,000  Level FlightAware
06:35AM 51.8290 49.5050 297° West 449 517 36,000  Level FlightAware
06:36AM 51.8740 49.3640 297° West 448 516 36,000  Level FlightAware
06:37AM 51.9110 49.2470 297° West 447 514 36,000  Level FlightAware
06:37AM 51.9560 49.1040 297° West 445 512 36,000  Level FlightAware
06:38AM 51.9930 48.9840 297° West 445 512 36,000  Level FlightAware
06:39AM 52.0300 48.8650 297° West 445 512 36,000  Level FlightAware
06:39AM 52.0710 48.7300 296° West 445 512 36,000  Level FlightAware
06:40AM 52.1080 48.6120 297° West 446 513 36,000  Level FlightAware
06:41AM 52.1490 48.4760 296° West 447 514 36,000  Level FlightAware
06:42AM 52.1860 48.3550 297° West 449 517 36,000  Level FlightAware
06:42AM 52.2220 48.2360 296° West 449 517 36,000  Level FlightAware
06:43AM 52.2630 48.0980 296° West 450 518 36,000  Level FlightAware
06:44AM 52.3010 47.9760 297° West 450 518 36,000  Level FlightAware
06:44AM 52.3420 47.8400 296° West 450 518 36,000  Level FlightAware
06:45AM 52.3780 47.7200 296° West 451 519 36,000  Level FlightAware
06:46AM 52.4160 47.5950 297° West 451 519 36,000  Level FlightAware
06:46AM 52.4570 47.4560 296° West 453 521 36,000  Level FlightAware
06:47AM 52.4930 47.3340 296° West 451 519 36,000  Level FlightAware
06:48AM 52.5340 47.1960 296° West 450 518 36,000  Level FlightAware
06:49AM 52.5700 47.0730 296° West 450 518 36,000  Level FlightAware
06:49AM 52.6060 46.9500 296° West 449 517 36,000  Level FlightAware
06:50AM 52.6770 46.7220 297° West 450 518 36,000  Level FlightAware
06:51AM 52.7140 46.6000 297° West 450 518 36,000  Level FlightAware
06:52AM 52.7550 46.4610 296° West 451 519 36,000  Level FlightAware
06:53AM 52.7930 46.3370 297° West 453 521 36,000  Level FlightAware
06:53AM 52.8340 46.1980 296° West 454 522 36,000  Level FlightAware
06:54AM 52.8690 46.0710 295° West 455 524 36,000  Level FlightAware
06:55AM 52.9000 45.9430 292° West 457 526 36,000  Level FlightAware
06:55AM 52.9340 45.7960 291° West 457 526 36,000  Level FlightAware
06:56AM 52.9640 45.6660 291° West 458 527 36,000  Level FlightAware
06:57AM 52.9950 45.5340 291° West 456 525 36,000  Level FlightAware
06:57AM 53.0290 45.3880 291° West 457 526 36,000  Level FlightAware
06:58AM 53.0590 45.2570 291° West 456 525 36,000  Level FlightAware
06:59AM 53.0920 45.1100 291° West 458 527 36,000  Level FlightAware
07:00AM 53.1200 44.9760 289° West 458 527 36,000  Level FlightAware
07:00AM 53.1470 44.8280 287° West 457 526 36,000  Level FlightAware
07:01AM 53.1710 44.6900 286° West 457 526 36,000  Level FlightAware
07:02AM 53.1940 44.5560 286° West 458 527 36,000  Level FlightAware
07:02AM 53.2200 44.4030 286° West 458 527 36,000  Level FlightAware
07:03AM 53.2430 44.2740 287° West 457 526 36,000  Level FlightAware
07:04AM 53.2700 44.1160 286° West 455 524 36,000  Level FlightAware
07:04AM 53.2930 43.9810 286° West 456 525 36,000  Level FlightAware
07:05AM 53.3130 43.8630 286° West 454 522 36,000  Level FlightAware
07:06AM 53.3420 43.6950 286° West 456 525 36,000  Level FlightAware
07:07AM 53.3640 43.5590 285° West 456 525 36,000  Level FlightAware
07:07AM 53.3900 43.4050 286° West 454 522 36,000  Level FlightAware
07:08AM 53.4120 43.2690 285° West 454 522 36,000  Level FlightAware
07:09AM 53.4360 43.1180 285° West 452 520 36,000  Level FlightAware
07:09AM 53.4580 42.9830 285° West 453 521 36,000  Level FlightAware
07:10AM 53.4770 42.8630 285° West 453 521 36,000  Level FlightAware
07:11AM 53.5040 42.6940 285° West 453 521 36,000  Level FlightAware
07:12AM 53.5340 42.4900 284° West 452 520 36,000  Level FlightAware
07:12AM 53.5500 42.3520 281° West 454 522 36,000  Level FlightAware
07:13AM 53.5660 42.2220 282° West 455 524 36,000  Level FlightAware
07:14AM 53.5850 42.0580 281° West 458 527 36,000  Level FlightAware
07:15AM 53.6020 41.9180 282° West 460 529 36,000  Level FlightAware
07:15AM 53.6180 41.7810 281° West 460 529 36,000  Level FlightAware
07:16AM 53.6370 41.6210 281° West 459 528 36,000  Level FlightAware
07:17AM 53.6530 41.4800 281° West 459 528 36,000  Level FlightAware
07:18AM 53.6750 41.2830 281° West 459 528 36,000  Level FlightAware
07:18AM 53.6920 41.1340 281° West 461 531 36,000  Level FlightAware
07:19AM 53.7160 40.9810 285° West 462 532 36,000  Level FlightAware
07:20AM 53.7490 40.8510 293° West 463 533 36,000  Level FlightAware
07:20AM 53.7860 40.7140 295° West 465 535 36,000  Level FlightAware
07:21AM 53.8180 40.5910 294° West 465 535 36,000  Level FlightAware
07:22AM 53.8570 40.4410 294° West 464 534 36,000  Level FlightAware
07:23AM 53.8970 40.2850 294° West 463 533 36,000  Level FlightAware
07:23AM 53.9310 40.1510 293° West 461 531 36,000  Level FlightAware
07:24AM 53.9690 40.0020 293° West 457 526 36,000  Level FlightAware
07:25AM 54.0000 39.8790 293° West 453 521 36,000  Level FlightAware
07:25AM 54.0310 39.7530 293° West 450 518 36,000  Level FlightAware
07:26AM 54.0640 39.6220 293° West 448 516 36,000  Level FlightAware
07:27AM 54.0920 39.5110 293° West 447 514 36,000  Level FlightAware
07:27AM 54.1290 39.3610 293° West 447 514 36,000  Level FlightAware
07:28AM 54.1660 39.2090 293° West 447 514 36,000  Level FlightAware
07:29AM 54.1970 39.0810 293° West 448 516 36,000  Level FlightAware
07:29AM 54.2300 38.9410 292° West 448 516 36,000  Level FlightAware
07:30AM 54.2560 38.8080 289° West 451 519 36,000  Level FlightAware
07:31AM 54.2810 38.6510 285° West 452 520 36,000  Level FlightAware
07:32AM 54.3010 38.5210 285° West 452 520 36,000  Level FlightAware
07:32AM 54.3240 38.3740 285° West 451 519 36,000  Level FlightAware
07:33AM 54.3480 38.2380 287° West 447 514 36,000  Level FlightAware
07:34AM 54.3860 38.0980 295° West 446 513 36,000  Level FlightAware
07:34AM 54.4260 37.9570 296° West 448 516 36,000  Level FlightAware
07:35AM 54.4590 37.8420 296° West 448 516 36,000  Level FlightAware
07:36AM 54.5030 37.6890 296° West 448 516 36,000  Level FlightAware
07:36AM 54.5400 37.5610 297° West 449 517 36,000  Level FlightAware
07:37AM 54.5810 37.4210 297° West 450 518 36,000  Level FlightAware
07:38AM 54.6170 37.2750 293° West 455 524 36,000  Level FlightAware
07:39AM 54.6440 37.1370 289° West 457 526 36,000  Level FlightAware
07:39AM 54.6690 36.9980 287° West 459 528 36,000  Level FlightAware
07:40AM 54.6940 36.8600 287° West 458 527 36,000  Level FlightAware
07:41AM 54.7230 36.6970 287° West 457 526 36,000  Level FlightAware
07:41AM 54.7340 36.5610 278° West 461 531 36,000  Level FlightAware
07:42AM 54.7360 36.4020 271° West 461 531 36,000  Level FlightAware
07:43AM 54.7360 36.2370 270° West 460 529 36,000  Level FlightAware
07:43AM 54.7370 36.0900 271° West 462 532 36,000  Level FlightAware
07:44AM 54.7380 35.9380 271° West 464 534 36,000  Level FlightAware
07:45AM 54.7380 35.7720 270° West 465 535 36,000  Level FlightAware
07:46AM 54.7380 35.5980 270° West 468 539 36,000  Level FlightAware
07:46AM 54.7380 35.4200 270° West 469 540 36,000  Level FlightAware
07:47AM 54.7370 35.2540 269° West 469 540 36,000 480 Level FlightAware
07:48AM 54.7330 35.1010 267° West 469 540 36,700 900 Climbing FlightAware
07:48AM 54.7270 34.9660 266° West 473 544 37,200 660 Climbing FlightAware
07:49AM 54.7190 34.7900 266° West 477 549 37,700 540 Climbing FlightAware
07:50AM 54.7120 34.6360 266° West 478 550 38,000 180 Climbing FlightAware
07:51AM 54.7050 34.4760 266° West 476 548 38,000  Level FlightAware
07:51AM 54.6980 34.3200 266° West 474 545 38,000  Level FlightAware
07:52AM 54.6900 34.1600 265° West 470 541 38,000  Level FlightAware
07:53AM 54.6820 33.9910 265° West 469 540 38,000  Level FlightAware
07:53AM 54.6740 33.8440 265° West 469 540 38,000  Level FlightAware
07:54AM 54.6660 33.6940 265° West 471 542 38,000  Level FlightAware
07:55AM 54.6580 33.5460 265° West 470 541 38,000  Level FlightAware
07:56AM 54.6480 33.3650 265° West 469 540 38,000  Level FlightAware
07:56AM 54.6410 33.2320 265° West 471 542 38,000  Level FlightAware
07:57AM 54.6310 33.0610 264° West 473 544 38,000  Level FlightAware
07:58AM 54.6220 32.8930 265° West 473 544 38,000  Level FlightAware
07:58AM 54.6130 32.7460 264° West 474 545 38,000  Level FlightAware
07:59AM 54.6020 32.5710 264° West 475 547 38,000  Level FlightAware
08:00AM 54.5950 32.4420 265° West 475 547 38,000  Level FlightAware
08:01AM 54.5800 32.2110 264° West 477 549 38,000  Level FlightAware
08:01AM 54.5710 32.0860 263° West 477 549 38,000  Level FlightAware
08:02AM 54.5630 31.9670 263° West 477 549 38,000  Level FlightAware
08:03AM 54.5460 31.7000 264° West 480 552 38,000  Level FlightAware
08:04AM 54.5380 31.5770 264° West 480 552 38,000  Level FlightAware
08:04AM 54.5260 31.4190 263° West 480 552 38,000  Level FlightAware
08:05AM 54.5140 31.2550 263° West 480 552 38,000  Level FlightAware
08:06AM 54.5000 31.0580 263° West 480 552 38,000  Level FlightAware
08:07AM 54.4920 30.9420 263° West 480 552 38,000  Level FlightAware
08:08AM 54.4810 30.7870 263° West 480 552 38,000  Level FlightAware
08:08AM 54.4730 30.6670 264° West 480 552 38,000  Level FlightAware
08:09AM 54.4590 30.4740 263° West 480 552 38,000  Level FlightAware
08:10AM 54.4490 30.3450 262° West 480 552 38,000  Level FlightAware
08:10AM 54.4440 30.2680 264° West 480 552 38,000  Level FlightAware
08:11AM 54.4340 30.1260 263° West 480 552 38,000  Level FlightAware
08:12AM 54.2920 29.7110 240° Southwest 486 559 38,000  Level FlightAware
08:13AM 54.2600 29.5140 255° West 484 557 38,000  Level FlightAware
08:14AM 54.2230 29.2850 255° West 488 562 38,000  Level FlightAware
08:14AM 54.1950 29.1200 254° West 491 565 38,000  Level FlightAware
08:15AM 54.1710 28.9800 254° West 489 563 38,000  Level FlightAware
08:16AM 54.1390 28.7880 254° West 483 556 38,000  Level FlightAware
08:17AM 54.1100 28.6210 254° West 479 551 38,000  Level FlightAware
08:18AM 54.0720 28.4010 254° West 480 552 38,000  Level FlightAware
08:18AM 54.0460 28.2560 253° West 486 559 38,000  Level FlightAware
08:19AM 54.0190 28.1020 253° West 484 557 38,000  Level FlightAware
08:20AM 53.9860 27.9180 253° West 483 556 38,000  Level FlightAware
08:21AM 53.9530 27.7370 253° West 484 557 38,000  Level FlightAware
08:21AM 53.9270 27.5930 253° West 485 558 38,000  Level FlightAware
08:22AM 53.8980 27.4360 253° West 485 558 38,000  Level FlightAware
08:23AM 53.8730 27.3050 252° West 484 557 38,000  Level FlightAware
08:24AM 53.8390 27.1240 252° West 487 560 38,000  Level FlightAware
08:24AM 53.8130 26.9870 252° West 488 562 38,000  Level FlightAware
08:25AM 53.7660 26.7400 252° West 493 567 38,000  Level FlightAware
08:26AM 53.7340 26.5750 252° West 494 568 38,000  Level FlightAware
08:27AM 53.7050 26.4330 251° West 485 558 38,000  Level FlightAware
08:27AM 53.6610 26.2900 243° Southwest 489 563 38,000  Level FlightAware
08:28AM 53.6130 26.1400 242° Southwest 483 556 38,000  Level FlightAware
08:29AM 53.5740 26.0190 242° Southwest 485 558 38,000  Level FlightAware
08:30AM 53.5440 25.9260 242° Southwest 486 559 38,000  Level FlightAware
08:31AM 53.4630 25.6740 242° Southwest 488 562 38,000  Level FlightAware
08:31AM 53.4250 25.5330 246° West 487 560 38,000  Level FlightAware
08:32AM 53.4000 25.3800 255° West 487 560 38,000  Level FlightAware
08:33AM 53.3780 25.2390 255° West 488 562 38,000  Level FlightAware
08:33AM 53.3520 25.0760 255° West 491 565 38,000  Level FlightAware
08:34AM 53.3290 24.9260 256° West 490 564 38,000  Level FlightAware
08:35AM 53.3090 24.7800 257° West 490 564 38,000  Level FlightAware
08:35AM 53.2840 24.6070 256° West 490 564 38,000  Level FlightAware
08:36AM 53.2610 24.4530 256° West 491 565 38,000  Level FlightAware
08:37AM 53.2420 24.3200 257° West 494 568 38,000  Level FlightAware
08:38AM 53.2160 24.1440 256° West 493 567 38,000  Level FlightAware
08:38AM 53.1940 24.0000 256° West 492 566 38,000  Level FlightAware
08:39AM 53.1630 23.8410 252° West 491 565 38,000  Level FlightAware
08:40AM 53.1270 23.7000 247° West 492 566 38,000  Level FlightAware
08:40AM 53.0870 23.5490 246° West 490 564 38,000  Level FlightAware
08:41AM 53.0570 23.4070 251° West 489 563 38,000  Level FlightAware
08:42AM 53.0340 23.3000 250° West 487 560 38,000  Level FlightAware
08:42AM 53.0040 23.1610 250° West 488 562 38,000  Level FlightAware
08:43AM 52.9700 23.0130 249° West 486 559 38,000  Level FlightAware
08:44AM 52.9370 22.8690 249° West 485 558 38,000  Level FlightAware
08:44AM 52.9040 22.7160 250° West 480 552 38,000  Level FlightAware
08:45AM 52.8610 22.5250 250° West 482 555 38,000  Level FlightAware
08:46AM 52.8300 22.3860 250° West 483 556 38,000  Level FlightAware
08:47AM 52.7970 22.2390 250° West 481 554 38,000  Level FlightAware
08:47AM 52.7630 22.0890 250° West 481 554 38,000  Level FlightAware
08:48AM 52.7300 21.9440 249° West 484 557 38,000  Level FlightAware
08:49AM 52.6980 21.8070 249° West 486 559 38,000  Level FlightAware
08:49AM 52.6660 21.6690 249° West 485 558 38,000  Level FlightAware
08:50AM 52.6360 21.5370 250° West 488 562 38,000  Level FlightAware
08:51AM 52.5980 21.3760 249° West 488 562 38,000  Level FlightAware
08:52AM 52.5620 21.2220 249° West 487 560 38,000  Level FlightAware
08:52AM 52.5310 21.0940 248° West 489 563 38,000  Level FlightAware
08:53AM 52.4960 20.9460 249° West 481 554 38,000  Level FlightAware
08:54AM 52.4600 20.7960 249° West 483 556 38,000  Level FlightAware
08:54AM 52.4260 20.6600 248° West 487 560 38,000  Level FlightAware
08:55AM 52.3940 20.5290 248° West 487 560 38,000  Level FlightAware
08:56AM 52.3550 20.3670 249° West 485 558 38,000  Level FlightAware
08:56AM 52.3170 20.2150 248° West 481 554 38,000  Level FlightAware
08:57AM 52.2840 20.0820 248° West 480 552 38,000  Level FlightAware
08:58AM 52.2490 19.9420 248° West 480 552 38,000  Level FlightAware
08:59AM 52.2150 19.8090 247° West 482 555 38,000  Level FlightAware
08:59AM 52.1760 19.6540 248° West 483 556 38,000  Level FlightAware
09:00AM 52.1420 19.5200 248° West 481 554 38,000  Level FlightAware
09:01AM 52.1060 19.3820 247° West 480 552 38,000  Level FlightAware
09:01AM 52.0700 19.2410 247° West 477 549 38,000  Level FlightAware
09:02AM 52.0340 19.1020 247° West 477 549 38,000  Level FlightAware
09:03AM 51.9960 18.9580 247° West 480 552 38,000  Level FlightAware
09:03AM 51.9590 18.8190 247° West 482 555 38,000  Level FlightAware
09:04AM 51.9220 18.6800 247° West 480 552 38,000  Level FlightAware
09:05AM 51.8930 18.5680 247° West 479 551 38,000  Level FlightAware
09:06AM 51.8510 18.4120 247° West 479 551 38,000  Level FlightAware
09:06AM 51.8200 18.2970 246° West 478 550 38,000  Level FlightAware
09:07AM 51.7760 18.1370 246° West 477 549 38,000  Level FlightAware
09:08AM 51.7410 18.0080 246° West 480 552 38,000  Level FlightAware
09:08AM 51.7040 17.8730 246° West 483 556 38,000  Level FlightAware
09:09AM 51.6640 17.7270 246° West 484 557 38,000  Level FlightAware
09:10AM 51.6290 17.6020 246° West 483 556 38,000  Level FlightAware
09:10AM 51.5860 17.4490 246° West 482 555 38,000  Level FlightAware
09:11AM 51.5480 17.3140 246° West 481 554 38,000  Level FlightAware
09:12AM 51.5110 17.1830 246° West 482 555 38,000  Level FlightAware
09:13AM 51.4680 17.0330 245° Southwest 482 555 38,000  Level FlightAware
09:13AM 51.4310 16.9040 245° Southwest 481 554 38,000  Level FlightAware
09:14AM 51.3930 16.7700 246° West 481 554 38,000  Level FlightAware
09:15AM 51.3510 16.6260 245° Southwest 482 555 38,000  Level FlightAware
09:15AM 51.3170 16.5100 245° Southwest 483 556 38,000  Level FlightAware
09:16AM 51.2760 16.3700 245° Southwest 481 554 38,000  Level FlightAware
09:17AM 51.2340 16.2280 245° Southwest 482 555 38,000  Level FlightAware
09:17AM 51.1960 16.0980 245° Southwest 483 556 38,000  Level FlightAware
09:18AM 51.1540 15.9560 245° Southwest 483 556 38,000  Level FlightAware
09:19AM 51.1170 15.8340 244° Southwest 484 557 38,000  Level FlightAware
09:20AM 51.0730 15.6880 244° Southwest 484 557 38,000  Level FlightAware
09:20AM 51.0320 15.5520 244° Southwest 485 558 38,000  Level FlightAware
09:21AM 50.9930 15.4230 244° Southwest 487 560 38,000  Level FlightAware
09:22AM 50.9530 15.2840 245° Southwest 487 560 38,000  Level FlightAware
09:22AM 50.9250 15.1520 251° West 490 564 38,000  Level FlightAware
09:23AM 50.8960 15.0010 253° West 490 564 38,000  Level FlightAware
09:24AM 50.8580 14.8610 247° West 488 562 38,000  Level FlightAware
09:24AM 50.8170 14.7230 245° Southwest 485 558 38,000  Level FlightAware
09:25AM 50.7860 14.6250 243° Southwest 485 558 38,000  Level FlightAware
09:26AM 50.7350 14.4590 244° Southwest 483 556 38,000  Level FlightAware
09:27AM 50.6930 14.3250 244° Southwest 483 556 38,000  Level FlightAware
09:27AM 50.6510 14.1930 243° Southwest 483 556 38,000  Level FlightAware
09:28AM 50.6080 14.0580 243° Southwest 483 556 38,000  Level FlightAware
09:29AM 50.5690 13.9370 243° Southwest 485 558 38,000  Level FlightAware
09:29AM 50.5260 13.8030 243° Southwest 487 560 38,000  Level FlightAware
09:30AM 50.4830 13.6680 243° Southwest 488 562 38,000  Level FlightAware
09:31AM 50.4400 13.5350 243° Southwest 487 560 38,000  Level FlightAware
09:31AM 50.3940 13.3950 243° Southwest 491 565 38,000  Level FlightAware
09:32AM 50.3550 13.2730 243° Southwest 487 560 38,000  Level FlightAware
09:33AM 50.3140 13.1510 242° Southwest 486 559 38,000  Level FlightAware
09:34AM 50.2700 13.0150 243° Southwest 486 559 38,000  Level FlightAware
09:34AM 50.2290 12.8950 242° Southwest 487 560 38,000  Level FlightAware
09:35AM 50.1670 12.7080 243° Southwest 487 560 38,000  Level FlightAware
09:36AM 50.1240 12.5780 243° Southwest 486 559 38,000  Level FlightAware
09:37AM 50.0840 12.4580 243° Southwest 487 560 38,000  Level FlightAware
09:37AM 50.0660 12.3150 259° West 488 562 38,000  Level FlightAware
09:38AM 50.0680 12.1610 271° West 489 563 38,000  Level FlightAware
09:39AM 50.0700 12.0130 271° West 490 564 38,000  Level FlightAware
09:39AM 50.0710 11.8710 271° West 491 565 38,000  Level FlightAware
09:40AM 50.0730 11.7040 271° West 490 564 38,000  Level FlightAware
09:41AM 50.0730 11.5600 270° West 489 563 38,000  Level FlightAware
09:41AM 50.0740 11.4300 271° West 487 560 38,000  Level FlightAware
09:42AM 50.0750 11.2600 271° West 487 560 38,000  Level FlightAware
09:43AM 50.0750 11.1320 270° West 487 560 38,000  Level FlightAware
09:44AM 50.0750 10.9730 270° West 486 559 38,000  Level FlightAware
09:44AM 50.0750 10.8270 270° West 486 559 38,000  Level FlightAware
09:45AM 50.0750 10.6550 270° West 486 559 38,000  Level FlightAware
09:46AM 50.0750 10.4930 270° West 487 560 38,000  Level FlightAware
09:47AM 50.0740 10.3890 269° West 486 559 38,000  Level FlightAware
09:47AM 50.0730 10.1990 270° West 486 559 38,000  Level FlightAware
09:48AM 50.0720 10.0500 269° West 484 557 38,000  Level FlightAware
09:49AM 50.0710 9.8960 269° West 483 556 38,000  Level FlightAware
09:49AM 50.0700 9.7600 269° West 483 556 38,000  Level FlightAware
09:50AM 50.0680 9.6110 269° West 484 557 38,000  Level FlightAware
09:51AM 50.0670 9.4650 269° West 485 558 38,000  Level FlightAware
09:52AM 50.0650 9.3190 269° West 484 557 38,000  Level FlightAware
09:52AM 50.0630 9.1800 269° West 484 557 38,000  Level FlightAware
09:53AM 50.0610 9.0350 269° West 484 557 38,000  Level FlightAware
09:54AM 50.0580 8.8770 268° West 482 555 38,000  Level FlightAware
09:54AM 50.0550 8.7280 268° West 484 557 38,000  Level FlightAware
09:55AM 50.0530 8.6080 269° West 485 558 38,000  Level FlightAware
09:56AM 50.0520 8.4440 270° West 485 558 38,000  Level FlightAware
09:56AM 50.0500 8.3050 269° West 486 559 38,000  Level FlightAware
09:57AM 50.0490 8.1770 269° West 488 562 38,000  Level FlightAware
09:59AM 50.0440 7.8560 269° West 489 563 38,000  Level FlightAware
09:59AM 50.0420 7.7270 269° West 490 564 38,000  Level FlightAware
10:00AM 50.0390 7.5690 268° West 491 565 38,000  Level FlightAware
10:01AM 50.0350 7.3230 269° West 489 563 38,000  Level FlightAware
10:02AM 50.0320 7.1850 268° West 488 562 38,000  Level FlightAware
10:02AM 50.0280 7.0260 268° West 487 560 38,000  Level FlightAware
10:03AM 50.0250 6.8900 268° West 488 562 38,000  Level FlightAware
10:04AM 50.0190 6.7430 266° West 488 562 38,000  Level FlightAware
10:05AM 49.9770 6.5560 251° West 485 558 38,000  Level FlightAware
10:05AM 49.9400 6.4300 246° West 479 551 38,000 -300 Level FlightAware
10:06AM 49.8860 6.2460 246° West 475 547 37,600 -900 Descending FlightAware
10:08AM 49.8270 6.0440 246° West 472 543 36,200 -1,440 Descending FlightAware
10:08AM 49.7840 5.9010 245° Southwest 475 547 35,000 -1,620 Descending FlightAware
10:09AM 49.7490 5.7840 245° Southwest 477 549 34,000 -1,680 Descending FlightAware
10:10AM 49.7130 5.6620 246° West 479 551 32,800 -1,740 Descending FlightAware
10:10AM 49.6680 5.5130 245° Southwest 480 552 31,600 -1,320 Descending FlightAware
10:11AM 49.6320 5.3900 246° West 483 556 31,000 -480 Descending FlightAware
10:12AM 49.6090 5.2970 249° West 482 555 31,000  Level FlightAware
10:13AM 49.5940 5.1930 257° West 484 557 31,000 -1,380 Level FlightAware
10:13AM 49.5680 4.9190 262° West 478 550 28,800 -2,280 Descending FlightAware
10:14AM 49.5550 4.7890 261° West 466 536 27,600 -1,860 Descending FlightAware
10:15AM 49.5440 4.6700 262° West 459 528 26,500 -1,860 Descending FlightAware
10:15AM 49.5290 4.5100 262° West 451 519 25,000 -1,800 Descending FlightAware
10:16AM 49.5148 4.3689 261° West 443 510 23,700 -1,620 Descending FlightAware ADS-B
10:17AM 49.5046 4.2663 261° West 437 503 22,900 -1,200 Descending FlightAware ADS-B
10:17AM 49.4952 4.1728 261° West 410 472 22,400 -1,020 Descending FlightAware ADS-B
10:18AM 49.4855 4.0782 261° West 394 453 21,800 -1,500 Descending FlightAware ADS-B
10:18AM 49.4770 3.9954 261° West 386 444 20,800 -2,040 Descending FlightAware ADS-B
10:19AM 49.4686 3.9152 261° West 380 437 19,800 -1,920 Descending FlightAware ADS-B
10:19AM 49.4596 3.8287 261° West 376 433 18,800 -1,860 Descending FlightAware ADS-B
10:20AM 49.4504 3.7415 261° West 370 426 17,800 -1,800 Descending FlightAware ADS-B
10:21AM 49.4413 3.6560 261° West 365 420 16,800 -1,800 Descending FlightAware ADS-B
10:21AM 49.4331 3.5784 261° West 361 415 15,900 -1,800 Descending FlightAware ADS-B
10:22AM 49.4238 3.4917 261° West 356 410 14,900 -1,740 Descending FlightAware ADS-B
10:22AM 49.4213 3.4732 258° West 354 407 14,700 -1,320 Descending FlightAware ADS-B
10:22AM 49.4163 3.4446 255° West 350 403 14,500 -1,440 Descending FlightAware ADS-B
10:22AM 49.4120 3.4250 251° West 348 400 14,200 -1,680 Descending FlightAware ADS-B
10:23AM 49.3940 3.3546 249° West 344 396 13,400 -1,440 Descending FlightAware ADS-B
10:23AM 49.3869 3.3295 247° West 341 392 13,200 -1,620 Descending FlightAware ADS-B
10:23AM 49.3775 3.3045 240° Southwest 336 387 12,800 -1,620 Descending FlightAware ADS-B
10:24AM 49.3475 3.2421 234° Southwest 329 379 12,000 -1,500 Descending FlightAware ADS-B
10:24AM 49.3215 3.1815 237° Southwest 327 376 11,200 -1,380 Descending FlightAware ADS-B
10:24AM 49.3104 3.1459 244° Southwest 326 375 10,900 -240 Descending FlightAware ADS-B
10:25AM 49.2865 3.0801 241° Southwest 296 341 11,000 60 Climbing FlightAware ADS-B
10:25AM 49.2661 3.0238 241° Southwest 291 335 11,000  Level FlightAware ADS-B
10:26AM 49.2448 2.9648 241° Southwest 293 337 11,000  Level FlightAware ADS-B
10:26AM 49.2256 2.9112 241° Southwest 292 336 11,000  Level FlightAware ADS-B
10:27AM 49.2041 2.8579 238° Southwest 293 337 11,000  Level FlightAware ADS-B
10:27AM 49.1912 2.8257 238° Southwest 291 335 11,000  Level FlightAware ADS-B
10:27AM 49.1848 2.8036 246° West 293 337 11,000  Level FlightAware ADS-B
10:28AM 49.1816 2.7864 254° West 295 339 11,000  Level FlightAware ADS-B
10:28AM 49.1772 2.7366 262° West 296 341 11,000  Level FlightAware ADS-B
10:28AM 49.1775 2.7072 271° West 295 339 11,000  Level FlightAware ADS-B
10:29AM 49.1783 2.6475 271° West 294 338 11,000  Level FlightAware ADS-B
10:29AM 49.1769 2.6124 267° West 295 339 11,000 -660 Level FlightAware ADS-B
10:29AM 49.1760 2.5701 268° West 294 338 10,600 -1,260 Descending FlightAware ADS-B
10:30AM 49.1775 2.5131 272° West 289 333 10,000 -1,440 Descending FlightAware ADS-B
10:30AM 49.1780 2.4816 271° West 289 333 9,600 -1,320 Descending FlightAware ADS-B
10:30AM 49.1780 2.4574 270° West 288 331 9,400 -1,080 Descending FlightAware ADS-B
10:31AM 49.1777 2.4229 269° West 285 328 9,100 -1,200 Descending FlightAware ADS-B
10:31AM 49.1775 2.4157 268° West 285 328 9,000 -2,040 Descending FlightAware ADS-B
10:31AM 49.1771 2.4097 264° West 284 327 8,900 -1,500 Descending FlightAware ADS-B
10:31AM 49.1762 2.3999 262° West 284 327 8,800 -1,140 Descending FlightAware ADS-B
10:31AM 49.1748 2.3895 258° West 282 325 8,700 -900 Descending FlightAware ADS-B
10:31AM 49.1694 2.3599 254° West 281 323 8,500 -720 Descending FlightAware ADS-B
10:31AM 49.1659 2.3425 253° West 272 313 8,400 -720 Descending FlightAware ADS-B
10:31AM 49.1630 2.3279 253° West 269 310 8,300 -1,140 Descending FlightAware ADS-B
10:31AM 49.1622 2.3218 259° West 267 307 8,200 -780 Descending FlightAware ADS-B
10:32AM 49.1614 2.3123 263° West 265 305 8,200 -480 Level FlightAware ADS-B
10:32AM 49.1613 2.2953 269° West 261 300 8,100 -960 Descending FlightAware ADS-B
10:32AM 49.1618 2.2651 271° West 261 300 7,800 -1,140 Descending FlightAware ADS-B
10:32AM 49.1624 2.2348 272° West 260 299 7,500 -1,020 Descending FlightAware ADS-B
10:32AM 49.1629 2.2074 272° West 259 298 7,300 -1,080 Descending FlightAware ADS-B
10:33AM 49.1634 2.1817 272° West 258 297 7,000 -900 Descending FlightAware ADS-B
10:33AM 49.1630 2.1692 267° West 258 297 7,000 -420 Level FlightAware ADS-B
10:33AM 49.1612 2.1553 259° West 257 296 6,900 -1,200 Descending FlightAware ADS-B
10:33AM 49.1542 2.1248 251° West 257 296 6,500 -1,260 Descending FlightAware ADS-B
10:34AM 49.1475 2.0973 250° West 259 298 6,200 -1,140 Descending FlightAware ADS-B
10:34AM 49.1394 2.0689 246° West 258 297 5,900 -900 Descending FlightAware ADS-B
10:34AM 49.1369 2.0638 233° Southwest 256 295 5,900  Level FlightAware ADS-B
10:34AM 49.1345 2.0596 229° Southwest 255 293 5,900 -900 Level FlightAware ADS-B
10:34AM 49.1307 2.0541 224° Southwest 253 291 5,800 -1,320 Descending FlightAware ADS-B
10:34AM 49.1171 2.0364 220° Southwest 254 292 5,500 -1,140 Descending FlightAware ADS-B
10:35AM 49.1012 2.0162 220° Southwest 257 296 5,200 -1,080 Descending FlightAware ADS-B
10:35AM 49.0861 1.9967 220° Southwest 257 296 4,900 -960 Descending FlightAware ADS-B
10:35AM 49.0722 1.9784 221° Southwest 256 295 4,700 -780 Descending FlightAware ADS-B
10:35AM 49.0641 1.9677 221° Southwest 255 293 4,600 -900 Descending FlightAware ADS-B
10:35AM 49.0538 1.9567 215° Southwest 252 290 4,400 -1,200 Descending FlightAware ADS-B
10:35AM 49.0493 1.9538 203° Southwest 252 290 4,300 -780 Descending FlightAware ADS-B
10:36AM 49.0447 1.9520 195° South 250 288 4,300  Level FlightAware ADS-B
10:36AM 49.0398 1.9511 187° South 249 287 4,300 -780 Level FlightAware ADS-B
10:36AM 49.0361 1.9511 180° South 247 284 4,200 -900 Descending FlightAware ADS-B
10:36AM 49.0312 1.9522 172° South 246 283 4,200 -600 Level FlightAware ADS-B
10:36AM 49.0250 1.9554 161° South 244 281 4,100 -540 Descending FlightAware ADS-B
10:36AM 49.0195 1.9601 150° Southeast 242 278 4,100 -720 Level FlightAware ADS-B
10:36AM 49.0169 1.9633 141° Southeast 241 277 4,000 -1,020 Descending FlightAware ADS-B
10:36AM 49.0142 1.9672 137° Southeast 240 276 4,000  Level FlightAware ADS-B
10:36AM 49.0115 1.9724 128° Southeast 240 276 4,000 -600 Level FlightAware ADS-B
10:36AM 49.0072 1.9825 123° Southeast 241 277 3,900 -480 Descending FlightAware ADS-B
10:36AM 49.0027 1.9931 123° Southeast 242 278 3,900  Level FlightAware ADS-B
10:36AM 48.9998 2.0009 120° Southeast 241 277 3,900  Level FlightAware ADS-B
10:37AM 48.9984 2.0061 112° Southeast 241 277 3,900  Level FlightAware ADS-B
10:37AM 48.9968 2.0240 98° East 239 275 3,900  Level FlightAware ADS-B
10:37AM 48.9969 2.0299 89° East 239 275 3,900  Level FlightAware ADS-B
10:37AM 48.9976 2.0434 85° East 238 274 3,900  Level FlightAware ADS-B
10:37AM 48.9989 2.0645 85° East 237 273 3,900  Level FlightAware ADS-B
10:37AM 49.0003 2.0878 85° East 239 275 3,900  Level FlightAware ADS-B
10:38AM 49.0018 2.1133 85° East 241 277 3,900  Level FlightAware ADS-B
10:38AM 49.0034 2.1407 85° East 236 272 3,900  Level FlightAware ADS-B
10:38AM 49.0048 2.1660 85° East 228 262 3,900  Level FlightAware ADS-B
10:38AM 49.0061 2.1895 85° East 212 244 3,900  Level FlightAware ADS-B
10:39AM 49.0072 2.2069 84° East 197 227 3,900  Level FlightAware ADS-B
10:39AM 49.0084 2.2289 85° East 186 214 3,900 -240 Level FlightAware ADS-B
10:39AM 49.0095 2.2492 85° East 191 220 3,800 -720 Descending FlightAware ADS-B
10:39AM 49.0105 2.2657 85° East 196 226 3,600 -1,140 Descending FlightAware ADS-B
10:40AM 49.0116 2.2865 85° East 195 224 3,300 -1,080 Descending FlightAware ADS-B
10:40AM 49.0139 2.3265 85° East 194 223 2,800 -1,080 Descending FlightAware ADS-B
10:40AM 49.0154 2.3547 85° East 188 216 2,400 -1,080 Descending FlightAware ADS-B
10:41AM 49.0172 2.3878 85° East 186 214 2,000 -960 Descending FlightAware ADS-B
10:41AM 49.0187 2.4138 85° East 173 199 1,700 -900 Descending FlightAware ADS-B
10:42AM 49.0209 2.4548 85° East 157 181 1,200 -780 Descending FlightAware ADS-B
10:42AM 49.0218 2.4718 85° East 140 161 1,000 -780 Descending FlightAware ADS-B
10:42AM 49.0230 2.4932 85° East 141 162 700 -840 Descending FlightAware ADS-B
10:43AM 49.0237 2.5074 86° East 133 153 500 -720 Descending FlightAware ADS-B
10:43AM 49.0247 2.5250 85° East 137 158 300 -660 Descending FlightAware ADS-B
10:49AM 49.0200 2.5810 62° Northeast 18 21 -60 Descending FlightAware
10:49AM 49.0190 2.5810 180° South 19 22  Level FlightAware
10:49AM 49.0170 2.5810 180° South 14 16  Level FlightAware
10:50AM 49.0160 2.5810 180° South 12 14  Level FlightAware
10:50AM 49.0150 2.5820 147° Southeast 10 12  Level FlightAware
10:51AM 49.0130 2.5820 180° South 10 12  Level FlightAware
10:52AM 49.0120 2.5820 180° South 11 13  Level FlightAware
10:54AM 49.0128 2.5500 272° West  Level Estimated
10:55AM 49.0128 2.5500 180° South  Level Estimated
10:56AM 49.0128 2.5500 180° South  Level Estimated
10:56AM 49.0000 2.5860 180° South 13 15  Level FlightAware
10:57AM 49.0000 2.5820 270° West 22 25  Level FlightAware
10:57AM 49.0000 2.5780 270° West 18 21  Level FlightAware
10:57AM 49.0000 2.5760 270° West 17 20  Level FlightAware
10:58AM 49.0000 2.5740 270° West 13 15  Level FlightAware
10:58AM 49.0000 2.5730 270° West 11 13  Level FlightAware
10:59AM 49.0000 2.5740 90° East 7 8  Level FlightAware
10:59AM 49.0010 2.5740 360° North 5 6  Level FlightAware
11:01AM 49.0128 2.5500 307° West  Level Estimated
11:02AM 49.0128 2.5500 180° South  Level Estimated
11:03AM 49.0128 2.5500 180° South  Level Estimated